sensor_id;sensor_type;location;lat;lon;timestamp;temperature;humidity
16767;DHT22;8501;49.926;8.404;2022-10-31T00:01:18;13.10;99.90
16767;DHT22;8501;49.926;8.404;2022-10-31T00:03:44;13.10;99.90
16767;DHT22;8501;49.926;8.404;2022-10-31T00:06:10;13.10;99.90
16767;DHT22;8501;49.926;8.404;2022-10-31T00:08:35;13.20;99.90
16767;DHT22;8501;49.926;8.404;2022-10-31T00:11:01;13.10;99.90
16767;DHT22;8501;49.926;8.404;2022-10-31T00:13:27;13.00;99.90
16767;DHT22;8501;49.926;8.404;2022-10-31T00:15:52;12.90;99.90
16767;DHT22;8501;49.926;8.404;2022-10-31T00:18:18;12.80;99.90
16767;DHT22;8501;49.926;8.404;2022-10-31T00:20:43;12.80;99.90
16767;DHT22;8501;49.926;8.404;2022-10-31T00:23:09;12.80;99.90
16767;DHT22;8501;49.926;8.404;2022-10-31T00:25:38;12.80;99.90
16767;DHT22;8501;49.926;8.404;2022-10-31T00:28:06;12.80;99.90
16767;DHT22;8501;49.926;8.404;2022-10-31T00:30:32;12.80;99.90
16767;DHT22;8501;49.926;8.404;2022-10-31T00:32:57;12.80;99.90
16767;DHT22;8501;49.926;8.404;2022-10-31T00:35:23;12.80;99.90
16767;DHT22;8501;49.926;8.404;2022-10-31T00:37:49;12.80;99.90
16767;DHT22;8501;49.926;8.404;2022-10-31T00:40:14;12.80;99.90
16767;DHT22;8501;49.926;8.404;2022-10-31T00:42:40;12.70;99.90
16767;DHT22;8501;49.926;8.404;2022-10-31T00:45:10;12.60;99.90
16767;DHT22;8501;49.926;8.404;2022-10-31T00:47:36;12.70;99.90
16767;DHT22;8501;49.926;8.404;2022-10-31T00:50:03;12.70;99.90
16767;DHT22;8501;49.926;8.404;2022-10-31T00:52:29;12.70;99.90
16767;DHT22;8501;49.926;8.404;2022-10-31T00:54:54;12.60;99.90
16767;DHT22;8501;49.926;8.404;2022-10-31T00:57:20;12.70;99.90
16767;DHT22;8501;49.926;8.404;2022-10-31T00:59:45;12.70;99.90
16767;DHT22;8501;49.926;8.404;2022-10-31T01:02:11;12.70;99.90
16767;DHT22;8501;49.926;8.404;2022-10-31T01:04:36;12.70;99.90
16767;DHT22;8501;49.926;8.404;2022-10-31T01:07:02;12.70;99.90
16767;DHT22;8501;49.926;8.404;2022-10-31T01:09:27;12.70;99.90
16767;DHT22;8501;49.926;8.404;2022-10-31T01:11:53;12.70;99.90
16767;DHT22;8501;49.926;8.404;2022-10-31T01:14:18;12.70;99.90
16767;DHT22;8501;49.926;8.404;2022-10-31T01:16:44;12.70;99.90
16767;DHT22;8501;49.926;8.404;2022-10-31T01:19:10;12.70;99.90
16767;DHT22;8501;49.926;8.404;2022-10-31T01:21:35;12.70;99.90
16767;DHT22;8501;49.926;8.404;2022-10-31T01:24:01;12.70;99.90
16767;DHT22;8501;49.926;8.404;2022-10-31T01:26:32;12.70;99.90
16767;DHT22;8501;49.926;8.404;2022-10-31T01:29:04;12.80;99.90
16767;DHT22;8501;49.926;8.404;2022-10-31T01:31:32;12.80;99.90
16767;DHT22;8501;49.926;8.404;2022-10-31T01:33:58;12.70;99.90
16767;DHT22;8501;49.926;8.404;2022-10-31T01:36:29;12.70;99.90
16767;DHT22;8501;49.926;8.404;2022-10-31T01:38:58;12.60;99.90
16767;DHT22;8501;49.926;8.404;2022-10-31T01:41:27;12.50;99.90
16767;DHT22;8501;49.926;8.404;2022-10-31T01:46:25;12.50;99.90
16767;DHT22;8501;49.926;8.404;2022-10-31T01:48:54;12.50;99.90
16767;DHT22;8501;49.926;8.404;2022-10-31T01:51:23;12.50;99.90
16767;DHT22;8501;49.926;8.404;2022-10-31T01:53:51;12.40;99.90
16767;DHT22;8501;49.926;8.404;2022-10-31T01:56:19;12.50;99.90
16767;DHT22;8501;49.926;8.404;2022-10-31T01:58:46;12.50;99.90
16767;DHT22;8501;49.926;8.404;2022-10-31T02:01:13;12.50;99.90
16767;DHT22;8501;49.926;8.404;2022-10-31T02:03:39;12.50;99.90
16767;DHT22;8501;49.926;8.404;2022-10-31T02:06:07;12.40;99.90
16767;DHT22;8501;49.926;8.404;2022-10-31T02:08:37;12.40;99.90
16767;DHT22;8501;49.926;8.404;2022-10-31T02:11:05;12.30;99.90
16767;DHT22;8501;49.926;8.404;2022-10-31T02:13:33;12.30;99.90
16767;DHT22;8501;49.926;8.404;2022-10-31T02:15:59;12.20;99.90
16767;DHT22;8501;49.926;8.404;2022-10-31T02:18:27;12.20;99.90
16767;DHT22;8501;49.926;8.404;2022-10-31T02:21:15;12.10;99.90
16767;DHT22;8501;49.926;8.404;2022-10-31T02:27:02;12.10;99.90
16767;DHT22;8501;49.926;8.404;2022-10-31T02:37:18;12.10;99.90
16767;DHT22;8501;49.926;8.404;2022-10-31T02:40:04;12.00;99.90
16767;DHT22;8501;49.926;8.404;2022-10-31T02:45:31;11.90;99.90
16767;DHT22;8501;49.926;8.404;2022-10-31T02:48:01;11.80;99.90
16767;DHT22;8501;49.926;8.404;2022-10-31T02:50:34;11.80;99.90
16767;DHT22;8501;49.926;8.404;2022-10-31T02:53:02;11.70;99.90
16767;DHT22;8501;49.926;8.404;2022-10-31T02:57:58;11.80;99.90
16767;DHT22;8501;49.926;8.404;2022-10-31T03:00:25;11.80;99.90
16767;DHT22;8501;49.926;8.404;2022-10-31T03:03:08;11.70;99.90
16767;DHT22;8501;49.926;8.404;2022-10-31T03:06:05;11.70;99.90
16767;DHT22;8501;49.926;8.404;2022-10-31T03:08:50;11.80;99.90
16767;DHT22;8501;49.926;8.404;2022-10-31T03:11:23;11.80;99.90
16767;DHT22;8501;49.926;8.404;2022-10-31T03:19:04;11.80;99.90
16767;DHT22;8501;49.926;8.404;2022-10-31T03:21:36;11.70;99.90
16767;DHT22;8501;49.926;8.404;2022-10-31T03:24:05;11.80;99.90
16767;DHT22;8501;49.926;8.404;2022-10-31T03:26:32;11.80;99.90
16767;DHT22;8501;49.926;8.404;2022-10-31T03:29:03;11.70;99.90
16767;DHT22;8501;49.926;8.404;2022-10-31T03:31:36;11.70;99.90
16767;DHT22;8501;49.926;8.404;2022-10-31T03:34:04;11.70;99.90
16767;DHT22;8501;49.926;8.404;2022-10-31T03:36:33;11.70;99.90
16767;DHT22;8501;49.926;8.404;2022-10-31T03:39:01;11.80;99.90
16767;DHT22;8501;49.926;8.404;2022-10-31T03:41:32;11.80;99.90
16767;DHT22;8501;49.926;8.404;2022-10-31T03:44:02;11.70;99.90
16767;DHT22;8501;49.926;8.404;2022-10-31T03:46:29;11.80;99.90
16767;DHT22;8501;49.926;8.404;2022-10-31T03:48:54;11.70;99.90
16767;DHT22;8501;49.926;8.404;2022-10-31T03:51:26;11.60;99.90
16767;DHT22;8501;49.926;8.404;2022-10-31T03:54:02;11.70;99.90
16767;DHT22;8501;49.926;8.404;2022-10-31T03:56:40;11.80;99.90
16767;DHT22;8501;49.926;8.404;2022-10-31T03:59:12;11.70;99.90
16767;DHT22;8501;49.926;8.404;2022-10-31T04:01:41;11.70;99.90
16767;DHT22;8501;49.926;8.404;2022-10-31T04:04:09;11.60;99.90
16767;DHT22;8501;49.926;8.404;2022-10-31T04:06:36;11.60;99.90
16767;DHT22;8501;49.926;8.404;2022-10-31T04:09:06;11.60;99.90
16767;DHT22;8501;49.926;8.404;2022-10-31T04:11:35;11.60;99.90
16767;DHT22;8501;49.926;8.404;2022-10-31T04:14:03;11.60;99.90
16767;DHT22;8501;49.926;8.404;2022-10-31T04:16:30;11.70;99.90
16767;DHT22;8501;49.926;8.404;2022-10-31T04:18:55;11.80;99.90
16767;DHT22;8501;49.926;8.404;2022-10-31T04:21:27;11.80;99.90
16767;DHT22;8501;49.926;8.404;2022-10-31T04:23:53;11.70;99.90
16767;DHT22;8501;49.926;8.404;2022-10-31T04:26:19;11.60;99.90
16767;DHT22;8501;49.926;8.404;2022-10-31T04:28:44;11.50;99.90
16767;DHT22;8501;49.926;8.404;2022-10-31T04:31:11;11.50;99.90
16767;DHT22;8501;49.926;8.404;2022-10-31T04:33:37;11.50;99.90
16767;DHT22;8501;49.926;8.404;2022-10-31T04:36:03;11.50;99.90
16767;DHT22;8501;49.926;8.404;2022-10-31T04:38:30;11.50;99.90
16767;DHT22;8501;49.926;8.404;2022-10-31T04:40:55;11.60;99.90
16767;DHT22;8501;49.926;8.404;2022-10-31T04:43:21;11.50;99.90
16767;DHT22;8501;49.926;8.404;2022-10-31T04:45:46;11.40;99.90
16767;DHT22;8501;49.926;8.404;2022-10-31T04:48:12;11.50;99.90
16767;DHT22;8501;49.926;8.404;2022-10-31T04:50:37;11.40;99.90
16767;DHT22;8501;49.926;8.404;2022-10-31T04:53:03;11.40;99.90
16767;DHT22;8501;49.926;8.404;2022-10-31T04:55:29;11.30;99.90
16767;DHT22;8501;49.926;8.404;2022-10-31T04:57:54;11.30;99.90
16767;DHT22;8501;49.926;8.404;2022-10-31T05:00:21;11.30;99.90
16767;DHT22;8501;49.926;8.404;2022-10-31T05:02:48;11.40;99.90
16767;DHT22;8501;49.926;8.404;2022-10-31T05:05:16;11.40;99.90
16767;DHT22;8501;49.926;8.404;2022-10-31T05:07:43;11.40;99.90
16767;DHT22;8501;49.926;8.404;2022-10-31T05:10:11;11.40;99.90
16767;DHT22;8501;49.926;8.404;2022-10-31T05:12:37;11.40;99.90
16767;DHT22;8501;49.926;8.404;2022-10-31T05:15:04;11.40;99.90
16767;DHT22;8501;49.926;8.404;2022-10-31T05:17:31;11.40;99.90
16767;DHT22;8501;49.926;8.404;2022-10-31T05:19:57;11.40;99.90
16767;DHT22;8501;49.926;8.404;2022-10-31T05:22:22;11.40;99.90
16767;DHT22;8501;49.926;8.404;2022-10-31T05:24:48;11.50;99.90
16767;DHT22;8501;49.926;8.404;2022-10-31T05:27:13;11.40;99.90
16767;DHT22;8501;49.926;8.404;2022-10-31T05:29:39;11.40;99.90
16767;DHT22;8501;49.926;8.404;2022-10-31T05:32:04;11.50;99.90
16767;DHT22;8501;49.926;8.404;2022-10-31T05:34:30;11.50;99.90
16767;DHT22;8501;49.926;8.404;2022-10-31T05:36:55;11.50;99.90
16767;DHT22;8501;49.926;8.404;2022-10-31T05:39:21;11.50;99.90
16767;DHT22;8501;49.926;8.404;2022-10-31T05:41:46;11.40;99.90
16767;DHT22;8501;49.926;8.404;2022-10-31T05:44:12;11.30;99.90
16767;DHT22;8501;49.926;8.404;2022-10-31T05:46:37;11.40;99.90
16767;DHT22;8501;49.926;8.404;2022-10-31T05:49:03;11.40;99.90
16767;DHT22;8501;49.926;8.404;2022-10-31T05:51:28;11.40;99.90
16767;DHT22;8501;49.926;8.404;2022-10-31T05:53:54;11.30;99.90
16767;DHT22;8501;49.926;8.404;2022-10-31T05:56:19;11.40;99.90
16767;DHT22;8501;49.926;8.404;2022-10-31T05:58:45;11.30;99.90
16767;DHT22;8501;49.926;8.404;2022-10-31T06:01:10;11.30;99.90
16767;DHT22;8501;49.926;8.404;2022-10-31T06:03:36;11.40;99.90
16767;DHT22;8501;49.926;8.404;2022-10-31T06:06:02;11.40;99.90
16767;DHT22;8501;49.926;8.404;2022-10-31T06:08:27;11.40;99.90
16767;DHT22;8501;49.926;8.404;2022-10-31T06:10:53;11.40;99.90
16767;DHT22;8501;49.926;8.404;2022-10-31T06:13:19;11.40;99.90
16767;DHT22;8501;49.926;8.404;2022-10-31T06:15:44;11.50;99.90
16767;DHT22;8501;49.926;8.404;2022-10-31T06:18:10;11.40;99.90
16767;DHT22;8501;49.926;8.404;2022-10-31T06:20:37;11.50;99.90
16767;DHT22;8501;49.926;8.404;2022-10-31T06:23:03;11.50;99.90
16767;DHT22;8501;49.926;8.404;2022-10-31T06:25:29;11.50;99.90
16767;DHT22;8501;49.926;8.404;2022-10-31T06:27:54;11.50;99.90
16767;DHT22;8501;49.926;8.404;2022-10-31T06:30:20;11.50;99.90
16767;DHT22;8501;49.926;8.404;2022-10-31T06:32:46;11.50;99.90
16767;DHT22;8501;49.926;8.404;2022-10-31T06:35:11;11.50;99.90
16767;DHT22;8501;49.926;8.404;2022-10-31T06:37:37;11.60;99.90
16767;DHT22;8501;49.926;8.404;2022-10-31T06:40:03;11.60;99.90
16767;DHT22;8501;49.926;8.404;2022-10-31T06:42:29;11.60;99.90
16767;DHT22;8501;49.926;8.404;2022-10-31T06:44:55;11.60;99.90
16767;DHT22;8501;49.926;8.404;2022-10-31T06:47:20;11.60;99.90
16767;DHT22;8501;49.926;8.404;2022-10-31T06:49:46;11.70;99.90
16767;DHT22;8501;49.926;8.404;2022-10-31T06:52:11;11.70;99.90
16767;DHT22;8501;49.926;8.404;2022-10-31T06:54:37;11.70;99.90
16767;DHT22;8501;49.926;8.404;2022-10-31T06:57:02;11.70;99.90
16767;DHT22;8501;49.926;8.404;2022-10-31T06:59:28;11.70;99.90
16767;DHT22;8501;49.926;8.404;2022-10-31T07:01:53;11.80;99.90
16767;DHT22;8501;49.926;8.404;2022-10-31T07:04:19;11.80;99.90
16767;DHT22;8501;49.926;8.404;2022-10-31T07:06:45;11.80;99.90
16767;DHT22;8501;49.926;8.404;2022-10-31T07:09:10;11.90;99.90
16767;DHT22;8501;49.926;8.404;2022-10-31T07:11:36;11.90;99.90
16767;DHT22;8501;49.926;8.404;2022-10-31T07:14:01;11.90;99.90
16767;DHT22;8501;49.926;8.404;2022-10-31T07:16:27;12.00;99.90
16767;DHT22;8501;49.926;8.404;2022-10-31T07:18:52;12.00;99.90
16767;DHT22;8501;49.926;8.404;2022-10-31T07:21:18;12.00;99.90
16767;DHT22;8501;49.926;8.404;2022-10-31T07:23:44;12.00;99.90
16767;DHT22;8501;49.926;8.404;2022-10-31T07:26:12;11.90;99.90
16767;DHT22;8501;49.926;8.404;2022-10-31T07:28:37;11.90;99.90
16767;DHT22;8501;49.926;8.404;2022-10-31T07:31:03;12.00;99.90
16767;DHT22;8501;49.926;8.404;2022-10-31T07:33:28;12.00;99.90
16767;DHT22;8501;49.926;8.404;2022-10-31T07:35:54;12.10;99.90
16767;DHT22;8501;49.926;8.404;2022-10-31T07:38:20;12.20;99.90
16767;DHT22;8501;49.926;8.404;2022-10-31T07:40:50;12.20;99.90
16767;DHT22;8501;49.926;8.404;2022-10-31T07:43:16;12.20;99.90
16767;DHT22;8501;49.926;8.404;2022-10-31T07:45:42;12.30;99.90
16767;DHT22;8501;49.926;8.404;2022-10-31T07:48:07;12.30;99.90
16767;DHT22;8501;49.926;8.404;2022-10-31T07:50:33;12.40;99.90
16767;DHT22;8501;49.926;8.404;2022-10-31T07:53:06;12.40;99.90
16767;DHT22;8501;49.926;8.404;2022-10-31T07:55:32;12.50;99.90
16767;DHT22;8501;49.926;8.404;2022-10-31T07:58:07;12.50;99.90
16767;DHT22;8501;49.926;8.404;2022-10-31T08:00:34;12.60;99.90
16767;DHT22;8501;49.926;8.404;2022-10-31T08:03:05;12.60;99.90
16767;DHT22;8501;49.926;8.404;2022-10-31T08:05:32;12.60;99.90
16767;DHT22;8501;49.926;8.404;2022-10-31T08:07:57;12.70;99.90
16767;DHT22;8501;49.926;8.404;2022-10-31T08:10:24;12.70;99.90
16767;DHT22;8501;49.926;8.404;2022-10-31T08:12:56;12.60;99.90
16767;DHT22;8501;49.926;8.404;2022-10-31T08:15:21;12.70;99.90
16767;DHT22;8501;49.926;8.404;2022-10-31T08:17:47;12.60;99.90
16767;DHT22;8501;49.926;8.404;2022-10-31T08:20:13;12.70;99.90
16767;DHT22;8501;49.926;8.404;2022-10-31T08:22:38;12.70;99.90
16767;DHT22;8501;49.926;8.404;2022-10-31T08:25:04;12.70;99.90
16767;DHT22;8501;49.926;8.404;2022-10-31T08:27:30;12.70;99.90
16767;DHT22;8501;49.926;8.404;2022-10-31T08:29:55;12.80;99.90
16767;DHT22;8501;49.926;8.404;2022-10-31T08:32:21;12.80;99.90
16767;DHT22;8501;49.926;8.404;2022-10-31T08:34:46;12.80;99.90
16767;DHT22;8501;49.926;8.404;2022-10-31T08:37:12;12.90;99.90
16767;DHT22;8501;49.926;8.404;2022-10-31T08:39:37;13.00;99.90
16767;DHT22;8501;49.926;8.404;2022-10-31T08:42:03;13.00;99.90
16767;DHT22;8501;49.926;8.404;2022-10-31T08:44:28;13.00;99.90
16767;DHT22;8501;49.926;8.404;2022-10-31T08:46:54;13.00;99.90
16767;DHT22;8501;49.926;8.404;2022-10-31T08:49:19;13.10;99.90
16767;DHT22;8501;49.926;8.404;2022-10-31T08:51:48;13.10;99.90
16767;DHT22;8501;49.926;8.404;2022-10-31T08:54:14;13.10;99.90
16767;DHT22;8501;49.926;8.404;2022-10-31T08:56:39;13.20;99.90
16767;DHT22;8501;49.926;8.404;2022-10-31T08:59:05;13.20;99.90
16767;DHT22;8501;49.926;8.404;2022-10-31T09:01:30;13.20;99.90
16767;DHT22;8501;49.926;8.404;2022-10-31T09:03:56;13.30;99.90
16767;DHT22;8501;49.926;8.404;2022-10-31T09:06:21;13.30;99.90
16767;DHT22;8501;49.926;8.404;2022-10-31T09:08:47;13.40;99.90
16767;DHT22;8501;49.926;8.404;2022-10-31T09:11:12;13.50;99.90
16767;DHT22;8501;49.926;8.404;2022-10-31T09:13:38;13.50;99.90
16767;DHT22;8501;49.926;8.404;2022-10-31T09:16:04;13.50;99.90
16767;DHT22;8501;49.926;8.404;2022-10-31T09:18:29;13.60;99.90
16767;DHT22;8501;49.926;8.404;2022-10-31T09:20:58;13.60;99.90
16767;DHT22;8501;49.926;8.404;2022-10-31T09:23:24;13.60;99.90
16767;DHT22;8501;49.926;8.404;2022-10-31T09:25:51;13.60;99.90
16767;DHT22;8501;49.926;8.404;2022-10-31T09:28:20;13.60;99.90
16767;DHT22;8501;49.926;8.404;2022-10-31T09:30:47;13.70;99.90
16767;DHT22;8501;49.926;8.404;2022-10-31T09:33:15;13.70;99.90
16767;DHT22;8501;49.926;8.404;2022-10-31T09:35:41;13.70;99.90
16767;DHT22;8501;49.926;8.404;2022-10-31T09:38:14;13.70;99.90
16767;DHT22;8501;49.926;8.404;2022-10-31T09:40:41;13.80;99.90
16767;DHT22;8501;49.926;8.404;2022-10-31T09:51:42;13.90;99.90
16767;DHT22;8501;49.926;8.404;2022-10-31T09:56:56;14.00;99.90
16767;DHT22;8501;49.926;8.404;2022-10-31T09:59:33;14.00;99.90
16767;DHT22;8501;49.926;8.404;2022-10-31T10:02:05;14.10;99.90
16767;DHT22;8501;49.926;8.404;2022-10-31T10:04:46;14.10;99.90
16767;DHT22;8501;49.926;8.404;2022-10-31T10:07:20;14.20;99.90
16767;DHT22;8501;49.926;8.404;2022-10-31T10:09:46;14.20;99.90
16767;DHT22;8501;49.926;8.404;2022-10-31T10:12:24;14.30;99.90
16767;DHT22;8501;49.926;8.404;2022-10-31T10:21:03;14.30;99.90
16767;DHT22;8501;49.926;8.404;2022-10-31T10:29:57;14.60;99.90
16767;DHT22;8501;49.926;8.404;2022-10-31T10:32:27;14.60;99.90
16767;DHT22;8501;49.926;8.404;2022-10-31T10:35:29;14.60;99.90
16767;DHT22;8501;49.926;8.404;2022-10-31T10:40:45;14.80;99.90
16767;DHT22;8501;49.926;8.404;2022-10-31T10:43:35;14.80;99.90
16767;DHT22;8501;49.926;8.404;2022-10-31T10:49:16;14.90;99.90
16767;DHT22;8501;49.926;8.404;2022-10-31T10:52:06;15.00;99.90
16767;DHT22;8501;49.926;8.404;2022-10-31T10:54:59;15.10;99.90
16767;DHT22;8501;49.926;8.404;2022-10-31T10:57:59;15.10;99.90
16767;DHT22;8501;49.926;8.404;2022-10-31T11:00:29;15.20;99.90
16767;DHT22;8501;49.926;8.404;2022-10-31T11:02:56;15.30;99.90
16767;DHT22;8501;49.926;8.404;2022-10-31T11:05:41;15.30;99.90
16767;DHT22;8501;49.926;8.404;2022-10-31T11:08:08;15.40;99.90
16767;DHT22;8501;49.926;8.404;2022-10-31T11:10:34;15.40;99.90
16767;DHT22;8501;49.926;8.404;2022-10-31T11:13:17;15.50;99.90
16767;DHT22;8501;49.926;8.404;2022-10-31T11:16:04;15.50;99.90
16767;DHT22;8501;49.926;8.404;2022-10-31T11:18:37;15.60;99.90
16767;DHT22;8501;49.926;8.404;2022-10-31T11:21:03;15.60;99.90
16767;DHT22;8501;49.926;8.404;2022-10-31T11:23:30;15.70;99.90
16767;DHT22;8501;49.926;8.404;2022-10-31T11:26:04;15.70;99.90
16767;DHT22;8501;49.926;8.404;2022-10-31T11:28:31;15.80;99.90
16767;DHT22;8501;49.926;8.404;2022-10-31T11:31:12;15.90;99.90
16767;DHT22;8501;49.926;8.404;2022-10-31T11:33:48;15.80;99.90
16767;DHT22;8501;49.926;8.404;2022-10-31T11:36:32;15.90;99.90
16767;DHT22;8501;49.926;8.404;2022-10-31T11:39:03;16.00;99.90
16767;DHT22;8501;49.926;8.404;2022-10-31T11:41:34;16.00;99.90
16767;DHT22;8501;49.926;8.404;2022-10-31T11:44:22;16.10;99.90
16767;DHT22;8501;49.926;8.404;2022-10-31T11:46:54;16.10;99.90
16767;DHT22;8501;49.926;8.404;2022-10-31T11:49:36;16.20;99.90
16767;DHT22;8501;49.926;8.404;2022-10-31T11:52:12;16.20;99.90
16767;DHT22;8501;49.926;8.404;2022-10-31T11:54:46;16.20;99.90
16767;DHT22;8501;49.926;8.404;2022-10-31T11:57:23;16.30;99.90
16767;DHT22;8501;49.926;8.404;2022-10-31T11:59:58;16.30;99.90
16767;DHT22;8501;49.926;8.404;2022-10-31T12:02:24;16.30;99.90
16767;DHT22;8501;49.926;8.404;2022-10-31T12:05:25;16.40;99.90
16767;DHT22;8501;49.926;8.404;2022-10-31T12:07:54;16.40;99.90
16767;DHT22;8501;49.926;8.404;2022-10-31T12:10:21;16.40;99.90
16767;DHT22;8501;49.926;8.404;2022-10-31T12:13:09;16.50;99.90
16767;DHT22;8501;49.926;8.404;2022-10-31T12:15:45;16.60;99.90
16767;DHT22;8501;49.926;8.404;2022-10-31T12:31:46;17.00;99.90
16767;DHT22;8501;49.926;8.404;2022-10-31T12:40:15;17.10;99.90
16767;DHT22;8501;49.926;8.404;2022-10-31T12:54:09;17.10;99.90
16767;DHT22;8501;49.926;8.404;2022-10-31T12:59:49;17.10;99.90
16767;DHT22;8501;49.926;8.404;2022-10-31T13:02:34;17.10;99.90
16767;DHT22;8501;49.926;8.404;2022-10-31T13:07:48;17.20;99.90
16767;DHT22;8501;49.926;8.404;2022-10-31T13:12:51;17.20;99.90
16767;DHT22;8501;49.926;8.404;2022-10-31T13:15:21;17.20;99.90
16767;DHT22;8501;49.926;8.404;2022-10-31T13:17:54;17.20;99.90
16767;DHT22;8501;49.926;8.404;2022-10-31T13:20:42;17.20;99.90
16767;DHT22;8501;49.926;8.404;2022-10-31T13:25:47;17.20;99.90
16767;DHT22;8501;49.926;8.404;2022-10-31T13:28:33;17.30;99.90
16767;DHT22;8501;49.926;8.404;2022-10-31T13:31:00;17.20;99.90
16767;DHT22;8501;49.926;8.404;2022-10-31T13:33:34;17.30;99.90
16767;DHT22;8501;49.926;8.404;2022-10-31T13:36:26;17.20;99.90
16767;DHT22;8501;49.926;8.404;2022-10-31T13:42:27;17.30;99.90
16767;DHT22;8501;49.926;8.404;2022-10-31T13:44:54;17.30;99.90
16767;DHT22;8501;49.926;8.404;2022-10-31T13:47:28;17.20;99.90
16767;DHT22;8501;49.926;8.404;2022-10-31T13:50:22;17.30;99.90
16767;DHT22;8501;49.926;8.404;2022-10-31T13:52:48;17.20;99.90
16767;DHT22;8501;49.926;8.404;2022-10-31T13:55:40;17.20;99.90
16767;DHT22;8501;49.926;8.404;2022-10-31T13:58:30;17.20;99.90
16767;DHT22;8501;49.926;8.404;2022-10-31T14:01:16;17.20;99.90
16767;DHT22;8501;49.926;8.404;2022-10-31T14:03:44;17.20;99.90
16767;DHT22;8501;49.926;8.404;2022-10-31T14:06:11;17.30;99.90
16767;DHT22;8501;49.926;8.404;2022-10-31T14:08:41;17.30;99.90
16767;DHT22;8501;49.926;8.404;2022-10-31T14:11:19;17.30;99.90
16767;DHT22;8501;49.926;8.404;2022-10-31T14:13:46;17.40;99.90
16767;DHT22;8501;49.926;8.404;2022-10-31T14:16:22;18.20;99.90
16767;DHT22;8501;49.926;8.404;2022-10-31T14:18:56;19.20;99.90
16767;DHT22;8501;49.926;8.404;2022-10-31T14:23:48;20.50;99.90
16767;DHT22;8501;49.926;8.404;2022-10-31T14:28:58;21.30;99.90
16767;DHT22;8501;49.926;8.404;2022-10-31T14:34:23;22.00;99.90
16767;DHT22;8501;49.926;8.404;2022-10-31T14:53:05;19.40;99.90
16767;DHT22;8501;49.926;8.404;2022-10-31T14:55:33;19.10;99.90
16767;DHT22;8501;49.926;8.404;2022-10-31T14:58:06;18.80;99.90
16767;DHT22;8501;49.926;8.404;2022-10-31T15:00:33;18.60;99.90
16767;DHT22;8501;49.926;8.404;2022-10-31T15:03:14;18.50;99.90
16767;DHT22;8501;49.926;8.404;2022-10-31T15:05:46;18.40;99.90
16767;DHT22;8501;49.926;8.404;2022-10-31T15:10:57;18.20;99.90
16767;DHT22;8501;49.926;8.404;2022-10-31T15:13:23;18.10;99.90
16767;DHT22;8501;49.926;8.404;2022-10-31T15:15:54;18.00;99.90
16767;DHT22;8501;49.926;8.404;2022-10-31T15:18:23;17.80;99.90
16767;DHT22;8501;49.926;8.404;2022-10-31T15:20:50;17.70;99.90
16767;DHT22;8501;49.926;8.404;2022-10-31T15:23:22;17.70;99.90
16767;DHT22;8501;49.926;8.404;2022-10-31T15:25:48;17.60;99.90
16767;DHT22;8501;49.926;8.404;2022-10-31T15:28:20;17.50;99.90
16767;DHT22;8501;49.926;8.404;2022-10-31T15:30:54;17.50;99.90
16767;DHT22;8501;49.926;8.404;2022-10-31T15:33:27;17.40;99.90
16767;DHT22;8501;49.926;8.404;2022-10-31T15:36:01;17.40;99.90
16767;DHT22;8501;49.926;8.404;2022-10-31T15:38:28;17.40;99.90
16767;DHT22;8501;49.926;8.404;2022-10-31T15:41:03;17.40;99.90
16767;DHT22;8501;49.926;8.404;2022-10-31T15:43:35;17.40;99.90
16767;DHT22;8501;49.926;8.404;2022-10-31T15:46:01;17.40;99.90
16767;DHT22;8501;49.926;8.404;2022-10-31T15:48:27;17.40;99.90
16767;DHT22;8501;49.926;8.404;2022-10-31T15:50:57;17.30;99.90
16767;DHT22;8501;49.926;8.404;2022-10-31T15:56:00;17.30;99.90
16767;DHT22;8501;49.926;8.404;2022-10-31T15:58:28;17.30;99.90
16767;DHT22;8501;49.926;8.404;2022-10-31T16:01:05;17.30;99.90
16767;DHT22;8501;49.926;8.404;2022-10-31T16:03:33;17.30;99.90
16767;DHT22;8501;49.926;8.404;2022-10-31T16:06:00;17.30;99.90
16767;DHT22;8501;49.926;8.404;2022-10-31T16:13:30;17.10;99.90
16767;DHT22;8501;49.926;8.404;2022-10-31T16:16:02;17.10;99.90
16767;DHT22;8501;49.926;8.404;2022-10-31T16:18:34;17.10;99.90
16767;DHT22;8501;49.926;8.404;2022-10-31T16:21:00;17.10;99.90
16767;DHT22;8501;49.926;8.404;2022-10-31T16:23:27;17.00;99.90
16767;DHT22;8501;49.926;8.404;2022-10-31T16:25:53;17.00;99.90
16767;DHT22;8501;49.926;8.404;2022-10-31T16:28:25;17.00;99.90
16767;DHT22;8501;49.926;8.404;2022-10-31T16:30:53;16.90;99.90
16767;DHT22;8501;49.926;8.404;2022-10-31T16:33:32;17.00;99.90
16767;DHT22;8501;49.926;8.404;2022-10-31T16:35:59;16.90;99.90
16767;DHT22;8501;49.926;8.404;2022-10-31T16:38:27;16.90;99.90
16767;DHT22;8501;49.926;8.404;2022-10-31T16:40:53;16.80;99.90
16767;DHT22;8501;49.926;8.404;2022-10-31T16:43:20;16.80;99.90
16767;DHT22;8501;49.926;8.404;2022-10-31T16:45:49;16.70;99.90
16767;DHT22;8501;49.926;8.404;2022-10-31T16:48:18;16.70;99.90
16767;DHT22;8501;49.926;8.404;2022-10-31T16:50:44;16.60;99.90
16767;DHT22;8501;49.926;8.404;2022-10-31T16:53:12;16.60;99.90
16767;DHT22;8501;49.926;8.404;2022-10-31T16:55:45;16.50;99.90
16767;DHT22;8501;49.926;8.404;2022-10-31T16:58:24;16.40;99.90
16767;DHT22;8501;49.926;8.404;2022-10-31T17:00:51;16.40;99.90
16767;DHT22;8501;49.926;8.404;2022-10-31T17:03:18;16.40;99.90
16767;DHT22;8501;49.926;8.404;2022-10-31T17:05:43;16.40;99.90
16767;DHT22;8501;49.926;8.404;2022-10-31T17:08:09;16.40;99.90
16767;DHT22;8501;49.926;8.404;2022-10-31T17:10:35;16.30;99.90
16767;DHT22;8501;49.926;8.404;2022-10-31T17:13:02;16.30;99.90
16767;DHT22;8501;49.926;8.404;2022-10-31T17:15:35;16.20;99.90
16767;DHT22;8501;49.926;8.404;2022-10-31T17:18:02;16.10;99.90
16767;DHT22;8501;49.926;8.404;2022-10-31T17:20:30;16.10;99.90
16767;DHT22;8501;49.926;8.404;2022-10-31T17:22:57;16.00;99.90
16767;DHT22;8501;49.926;8.404;2022-10-31T17:25:29;16.00;99.90
16767;DHT22;8501;49.926;8.404;2022-10-31T17:27:56;16.00;99.90
16767;DHT22;8501;49.926;8.404;2022-10-31T17:30:22;16.00;99.90
16767;DHT22;8501;49.926;8.404;2022-10-31T17:32:48;15.90;99.90
16767;DHT22;8501;49.926;8.404;2022-10-31T17:35:15;15.90;99.90
16767;DHT22;8501;49.926;8.404;2022-10-31T17:37:41;16.00;99.90
16767;DHT22;8501;49.926;8.404;2022-10-31T17:40:12;16.00;99.90
16767;DHT22;8501;49.926;8.404;2022-10-31T17:42:38;16.00;99.90
16767;DHT22;8501;49.926;8.404;2022-10-31T17:45:05;15.90;99.90
16767;DHT22;8501;49.926;8.404;2022-10-31T17:47:31;15.90;99.90
16767;DHT22;8501;49.926;8.404;2022-10-31T17:49:57;15.80;99.90
16767;DHT22;8501;49.926;8.404;2022-10-31T17:52:23;15.80;99.90
16767;DHT22;8501;49.926;8.404;2022-10-31T17:54:48;15.80;99.90
16767;DHT22;8501;49.926;8.404;2022-10-31T17:57:14;15.80;99.90
16767;DHT22;8501;49.926;8.404;2022-10-31T17:59:40;15.80;99.90
16767;DHT22;8501;49.926;8.404;2022-10-31T18:02:07;15.80;99.90
16767;DHT22;8501;49.926;8.404;2022-10-31T18:04:34;15.70;99.90
16767;DHT22;8501;49.926;8.404;2022-10-31T18:07:00;15.60;99.90
16767;DHT22;8501;49.926;8.404;2022-10-31T18:09:26;15.50;99.90
16767;DHT22;8501;49.926;8.404;2022-10-31T18:11:51;15.50;99.90